Time;durP1;ratioP1;P1;durP2;ratioP2;P2;SDS_P1;SDS_P2;PMS_P1;PMS_P2;Temp;Humidity;BMP_temperature;BMP_pressure;BME280_temperature;BME280_humidity;BME280_pressure;Samples;Min_cycle;Max_cycle;Signal;HPM_P1;HPM_P2
2019/05/24 00:02:27;;;;;;;13.5;9.9;;;;;;;11.63;72.58789;962.3649;;;;
2019/05/24 00:05:07;;;;;;;12.6;10;;;;;;;11.53;73.21289;962.3722;;;;
2019/05/24 00:07:21;;;;;;;10.5;9.1;;;;;;;11.7;72.07227;962.3822;;;;
2019/05/24 00:09:49;;;;;;;13.3;9.5;;;;;;;11.66;72.3584;962.365;;;;
2019/05/24 00:11:57;;;;;;;10.3;7.7;;;;;;;11.59;72.95605;962.3906;;;;
2019/05/24 00:14:22;;;;;;;11.5;6.7;;;;;;;11.8;71.60938;962.3994;;;;
2019/05/24 00:16:47;;;;;;;7.2;6.2;;;;;;;11.72;71.72559;962.3442;;;;
2019/05/24 00:19:12;;;;;;;8.3;6.3;;;;;;;11.54;72.57324;962.3844;;;;
2019/05/24 00:21:37;;;;;;;7.8;6.4;;;;;;;11.47;72.77051;962.3281;;;;
2019/05/24 00:24:02;;;;;;;7.1;6.2;;;;;;;11.43;73.18457;962.3937;;;;
2019/05/24 00:26:27;;;;;;;8.1;6.6;;;;;;;11.47;73.33203;962.358;;;;
2019/05/24 00:28:53;;;;;;;7.9;7.1;;;;;;;11.5;73.30078;962.3161;;;;
2019/05/24 00:31:18;;;;;;;9.5;7.9;;;;;;;11.38;73.3291;962.3304;;;;
2019/05/24 00:33:45;;;;;;;9.6;7.7;;;;;;;11.39;73.5625;962.3254;;;;
2019/05/24 00:36:10;;;;;;;8.5;7.2;;;;;;;11.26;73.50488;962.255;;;;
2019/05/24 00:38:37;;;;;;;9.3;7.3;;;;;;;11.09;74.46875;962.2936;;;;
2019/05/24 00:41:03;;;;;;;10.8;7.1;;;;;;;11.1;74.01563;962.275;;;;
2019/05/24 00:43:35;;;;;;;8.6;6.8;;;;;;;11.1;73.45605;962.2789;;;;
2019/05/24 00:46:06;;;;;;;9.4;7;;;;;;;11.06;74.3125;962.3095;;;;
2019/05/24 00:48:31;;;;;;;7.9;6.7;;;;;;;11.11;73.79688;962.3038;;;;
2019/05/24 00:50:57;;;;;;;8.5;6;;;;;;;11.08;73.8252;962.3075;;;;
2019/05/24 00:53:22;;;;;;;6.5;5.9;;;;;;;11;74.25684;962.2522;;;;
2019/05/24 00:55:47;;;;;;;7.4;5.8;;;;;;;10.95;74.25977;962.241;;;;
2019/05/24 00:58:14;;;;;;;7.7;6;;;;;;;10.87;73.87109;962.2085;;;;
2019/05/24 01:00:58;;;;;;;7.1;6.4;;;;;;;10.86;74.63965;962.2441;;;;
2019/05/24 01:03:24;;;;;;;8.4;6.4;;;;;;;10.72;75.28125;962.269;;;;
2019/05/24 01:06:03;;;;;;;9.5;6.6;;;;;;;10.77;75.2793;962.1937;;;;
2019/05/24 01:08:29;;;;;;;8.7;5.7;;;;;;;10.68;75.06348;962.1752;;;;
2019/05/24 01:11:02;;;;;;;7.8;5.7;;;;;;;10.74;74.63086;962.1326;;;;
2019/05/24 01:13:27;;;;;;;7.7;5.9;;;;;;;10.74;76.03125;962.0598;;;;
2019/05/24 01:15:52;;;;;;;10.9;7;;;;;;;10.85;74.41602;962.0339;;;;
2019/05/24 01:18:17;;;;;;;8.2;7;;;;;;;10.94;73.97754;961.9659;;;;
2019/05/24 01:20:43;;;;;;;9;6.9;;;;;;;10.9;73.94727;961.8717;;;;
2019/05/24 01:23:08;;;;;;;8.1;6.7;;;;;;;10.74;74.46777;961.9394;;;;
2019/05/24 01:25:44;;;;;;;7.1;6.4;;;;;;;10.77;74.24121;961.8958;;;;
2019/05/24 01:28:29;;;;;;;10.1;6.6;;;;;;;10.68;74.77246;961.9111;;;;
2019/05/24 01:30:55;;;;;;;7.6;6.2;;;;;;;10.75;73.88672;961.9592;;;;
2019/05/24 01:33:20;;;;;;;6.9;6.1;;;;;;;10.99;73.0166;961.9473;;;;
2019/05/24 01:35:46;;;;;;;7.2;6.2;;;;;;;10.7;74.93848;961.9699;;;;
2019/05/24 01:38:12;;;;;;;7.2;6.5;;;;;;;10.65;74.90723;962.0234;;;;
2019/05/24 01:40:39;;;;;;;7.5;6.3;;;;;;;10.62;74.59961;962.035;;;;
2019/05/24 01:43:04;;;;;;;7.4;6.3;;;;;;;10.38;75.1416;961.9694;;;;
2019/05/24 01:45:29;;;;;;;7.8;5.9;;;;;;;10.44;74.56738;961.9369;;;;
2019/05/24 01:47:54;;;;;;;8;6;;;;;;;10.25;75.07031;961.955;;;;
2019/05/24 01:50:19;;;;;;;8.1;6.2;;;;;;;10.24;76.64355;961.8999;;;;
2019/05/24 01:52:45;;;;;;;8;6.5;;;;;;;10.37;75.42969;961.8714;;;;
2019/05/24 01:55:10;;;;;;;7.1;6.3;;;;;;;10.32;75.56055;961.8134;;;;
2019/05/24 01:57:53;;;;;;;7.1;6.4;;;;;;;10.31;75.95605;961.7576;;;;
2019/05/24 02:00:26;;;;;;;8.8;6.8;;;;;;;10.3;75.92969;961.7543;;;;
2019/05/24 02:02:51;;;;;;;8.4;6.5;;;;;;;10.28;75.96191;961.7095;;;;
2019/05/24 02:05:16;;;;;;;8.9;6.6;;;;;;;10.41;75.47266;961.7025;;;;
2019/05/24 02:07:41;;;;;;;7.4;6.6;;;;;;;10.24;76.07031;961.7406;;;;
2019/05/24 02:10:06;;;;;;;8.3;6.4;;;;;;;10.19;76.02832;961.7502;;;;
2019/05/24 02:12:31;;;;;;;7.5;6.4;;;;;;;10.16;76.34766;961.729;;;;
2019/05/24 02:14:57;;;;;;;9.3;5.6;;;;;;;10.37;74.52246;961.6942;;;;
2019/05/24 02:17:22;;;;;;;7.3;5.9;;;;;;;10.25;74.71094;961.6743;;;;
2019/05/24 02:19:47;;;;;;;8;5.5;;;;;;;10.45;73.7998;961.5943;;;;
2019/05/24 02:22:12;;;;;;;8.8;6.2;;;;;;;10.14;75.15625;961.7217;;;;
2019/05/24 02:24:37;;;;;;;8;6;;;;;;;10.17;75.81348;961.6325;;;;
2019/05/24 02:27:02;;;;;;;10;6.5;;;;;;;10.29;74.63672;961.6219;;;;
2019/05/24 02:29:29;;;;;;;7.5;6.6;;;;;;;10.1;75.26563;961.6199;;;;
2019/05/24 02:31:56;;;;;;;8.2;6.6;;;;;;;10.04;75.7666;961.644;;;;
2019/05/24 02:34:21;;;;;;;7.7;6.9;;;;;;;9.98;75.82715;961.6386;;;;
2019/05/24 02:36:46;;;;;;;9.5;6.4;;;;;;;9.98;76.29297;961.6685;;;;
2019/05/24 02:39:12;;;;;;;7.5;6.7;;;;;;;9.98;76.08398;961.6505;;;;
2019/05/24 02:41:37;;;;;;;7.7;6.4;;;;;;;9.91;76.76953;961.6508;;;;
2019/05/24 02:44:03;;;;;;;7.9;6.4;;;;;;;9.84;76.6875;961.6758;;;;
2019/05/24 02:46:29;;;;;;;7.6;6.9;;;;;;;9.86;76.60938;961.713;;;;
2019/05/24 02:49:06;;;;;;;7.7;6.9;;;;;;;9.92;75.92188;961.6796;;;;
2019/05/24 02:51:32;;;;;;;7.3;6.2;;;;;;;9.82;76.37012;961.7902;;;;
2019/05/24 02:53:57;;;;;;;7.4;6.4;;;;;;;9.76;76.87109;961.7158;;;;
2019/05/24 02:56:24;;;;;;;8.1;6.7;;;;;;;9.7;76.18652;961.7269;;;;
2019/05/24 02:58:49;;;;;;;8.3;6.3;;;;;;;9.7;76.83887;961.7308;;;;
2019/05/24 03:01:14;;;;;;;9.8;6.9;;;;;;;9.77;76.00977;961.7238;;;;
2019/05/24 03:03:39;;;;;;;9.6;6.9;;;;;;;9.61;77.12207;961.7299;;;;
2019/05/24 03:06:06;;;;;;;7.7;6.2;;;;;;;9.53;77.40039;961.7648;;;;
2019/05/24 03:08:32;;;;;;;8.6;6.6;;;;;;;9.58;76.83789;961.7414;;;;
2019/05/24 03:10:58;;;;;;;8;6.7;;;;;;;9.54;77.30859;961.6903;;;;
2019/05/24 03:13:23;;;;;;;8.4;6.8;;;;;;;9.52;77.20117;961.731;;;;
2019/05/24 03:15:48;;;;;;;7.8;7.1;;;;;;;9.59;77.30664;961.7275;;;;
2019/05/24 03:18:15;;;;;;;8.4;6.8;;;;;;;9.54;77.04102;961.6903;;;;
2019/05/24 03:20:41;;;;;;;8;7.1;;;;;;;9.61;76.7168;961.712;;;;
2019/05/24 03:23:28;;;;;;;7.6;6.6;;;;;;;9.58;77.0127;961.634;;;;
2019/05/24 03:26:05;;;;;;;8;6.6;;;;;;;9.51;77.58301;961.6292;;;;
2019/05/24 03:28:36;;;;;;;7.8;7;;;;;;;9.49;77.08008;961.657;;;;
2019/05/24 03:31:02;;;;;;;8.1;6.9;;;;;;;9.52;77.13086;961.5804;;;;
2019/05/24 03:33:30;;;;;;;6.9;6.3;;;;;;;9.51;76.82715;961.5775;;;;
2019/05/24 03:35:57;;;;;;;10.1;7.1;;;;;;;9.45;77.23633;961.5969;;;;
2019/05/24 03:38:25;;;;;;;7.4;6.7;;;;;;;9.51;78.16309;961.6252;;;;
2019/05/24 03:40:50;;;;;;;8.7;7.1;;;;;;;9.57;77.66406;961.5405;;;;
2019/05/24 03:43:15;;;;;;;8;6.5;;;;;;;9.54;76.80859;961.5869;;;;
2019/05/24 03:45:42;;;;;;;9.2;6.5;;;;;;;9.62;75.77539;961.543;;;;
2019/05/24 03:48:16;;;;;;;8;6.4;;;;;;;9.62;75.70605;961.5519;;;;
2019/05/24 03:50:49;;;;;;;9;6.1;;;;;;;9.77;75.35938;961.5765;;;;
2019/05/24 03:53:19;;;;;;;8.1;6.6;;;;;;;9.45;76.16504;961.5541;;;;
2019/05/24 03:55:44;;;;;;;7.7;6.9;;;;;;;9.48;76.21582;961.6586;;;;
2019/05/24 03:58:09;;;;;;;8.1;6.8;;;;;;;9.63;75.94043;961.6584;;;;
2019/05/24 04:02:26;;;;;;;9.2;6.5;;;;;;;9.68;75.79785;961.7258;;;;
2019/05/24 04:05:04;;;;;;;9.5;7.2;;;;;;;9.53;76.50293;961.709;;;;
2019/05/24 04:07:29;;;;;;;15;7.2;;;;;;;9.52;76.43359;961.7267;;;;
2019/05/24 04:09:55;;;;;;;14.2;6.9;;;;;;;9.51;77.44336;961.6978;;;;
2019/05/24 04:12:20;;;;;;;14.4;6.4;;;;;;;9.79;76.00293;961.7858;;;;
2019/05/24 04:15:06;;;;;;;11.7;6.9;;;;;;;10.18;74.13867;961.7817;;;;
2019/05/24 04:17:42;;;;;;;10.6;7.4;;;;;;;10.12;73.77734;961.7592;;;;
2019/05/24 04:20:10;;;;;;;9.3;7.2;;;;;;;10;75.30859;961.7859;;;;
2019/05/24 04:22:35;;;;;;;9.6;7.1;;;;;;;9.97;75.3252;961.7211;;;;
2019/05/24 04:25:02;;;;;;;8.1;7.3;;;;;;;9.91;75.54785;961.7672;;;;
2019/05/24 04:27:27;;;;;;;13.3;8.6;;;;;;;9.94;74.53906;961.7983;;;;
2019/05/24 04:29:52;;;;;;;10.8;8.1;;;;;;;9.98;75.74609;961.7719;;;;
2019/05/24 04:32:25;;;;;;;14.8;8.1;;;;;;;10.07;74.87598;961.7608;;;;
2019/05/24 04:34:54;;;;;;;11.6;8.7;;;;;;;10.11;74.90723;961.7383;;;;
2019/05/24 04:37:23;;;;;;;13;8.7;;;;;;;10.24;73.8916;961.6978;;;;
2019/05/24 04:39:48;;;;;;;13.3;9.8;;;;;;;10.3;74.33398;961.7075;;;;
2019/05/24 04:42:13;;;;;;;14.5;9.4;;;;;;;10.39;74.34863;961.8309;;;;
2019/05/24 04:44:40;;;;;;;13.8;9.7;;;;;;;10.49;73.87793;961.805;;;;
2019/05/24 04:47:05;;;;;;;14.9;9.7;;;;;;;10.42;74.22656;961.8004;;;;
2019/05/24 04:49:32;;;;;;;14.1;9.4;;;;;;;10.35;74.97168;961.7838;;;;
2019/05/24 04:51:57;;;;;;;13.5;9;;;;;;;10.41;76.04395;961.7115;;;;
2019/05/24 04:54:23;;;;;;;13.2;9.5;;;;;;;10.53;75.83105;961.7573;;;;
2019/05/24 04:56:48;;;;;;;17;11.2;;;;;;;10.52;75.08301;961.7244;;;;
2019/05/24 04:59:13;;;;;;;16.3;10.1;;;;;;;10.7;74.66992;961.7329;;;;
2019/05/24 05:01:38;;;;;;;15.3;9.4;;;;;;;10.76;73.84082;961.7255;;;;
2019/05/24 05:04:06;;;;;;;12.8;9.3;;;;;;;11.32;73.24902;961.7589;;;;
2019/05/24 05:06:31;;;;;;;12.9;9.3;;;;;;;12.44;68.90625;961.7726;;;;
2019/05/24 05:08:56;;;;;;;15.8;9;;;;;;;13.32;64.90137;961.7701;;;;
2019/05/24 05:11:22;;;;;;;15.9;9;;;;;;;12.85;66.00391;961.7849;;;;
2019/05/24 05:13:47;;;;;;;21.7;8.9;;;;;;;12.38;68.25293;961.7885;;;;
2019/05/24 05:16:13;;;;;;;12.9;9.1;;;;;;;12.05;69.47461;961.7798;;;;
2019/05/24 05:18:38;;;;;;;14.9;9.7;;;;;;;11.95;70.65234;961.7878;;;;
2019/05/24 05:21:20;;;;;;;18.5;9.8;;;;;;;11.81;70.92188;961.8099;;;;
2019/05/24 05:23:45;;;;;;;11.8;9.2;;;;;;;11.78;71.51367;961.7828;;;;
2019/05/24 05:26:24;;;;;;;14.4;9.9;;;;;;;11.81;72.40723;961.793;;;;
2019/05/24 05:28:49;;;;;;;14.1;9.9;;;;;;;11.74;71.76367;961.7537;;;;
2019/05/24 05:31:16;;;;;;;16.2;10.6;;;;;;;11.8;72.94238;961.8027;;;;
2019/05/24 05:33:42;;;;;;;14.5;9.9;;;;;;;11.92;72.4834;961.7317;;;;
2019/05/24 05:36:07;;;;;;;17;10.4;;;;;;;11.93;72.74219;961.7297;;;;
2019/05/24 05:38:32;;;;;;;15.2;9.7;;;;;;;11.99;73.0332;961.7958;;;;
2019/05/24 05:41:00;;;;;;;13.8;9.7;;;;;;;12.19;71.5127;961.7742;;;;
2019/05/24 05:43:25;;;;;;;13.5;10.3;;;;;;;12.31;71.85742;961.7684;;;;
2019/05/24 05:45:50;;;;;;;13;9.9;;;;;;;12.4;71.42676;961.8044;;;;
2019/05/24 05:48:17;;;;;;;12.9;9.5;;;;;;;12.56;69.25293;961.7397;;;;
2019/05/24 05:50:44;;;;;;;15.3;10;;;;;;;12.72;68.37598;961.7576;;;;
2019/05/24 05:53:09;;;;;;;16.1;9.6;;;;;;;12.7;69.55664;961.7129;;;;
2019/05/24 05:55:35;;;;;;;19.2;10.9;;;;;;;12.62;70.38574;961.7665;;;;
2019/05/24 05:58:00;;;;;;;12.7;9.6;;;;;;;12.66;69.64258;961.7139;;;;
2019/05/24 06:00:25;;;;;;;13.7;10.4;;;;;;;13.15;67.93848;961.7534;;;;
2019/05/24 06:02:51;;;;;;;16.6;11.2;;;;;;;13.07;66.17969;961.7245;;;;
2019/05/24 06:05:15;;;;;;;16;10.8;;;;;;;13.12;66.94824;961.7405;;;;
2019/05/24 06:07:42;;;;;;;14.4;11.3;;;;;;;13.08;67.63477;961.7275;;;;
2019/05/24 06:10:07;;;;;;;16.4;10.6;;;;;;;13.49;64.0459;961.6528;;;;
2019/05/24 06:12:33;;;;;;;16.5;11.2;;;;;;;13.81;63.14258;961.7134;;;;
2019/05/24 06:14:58;;;;;;;16.4;11.5;;;;;;;13.74;64.75488;961.6616;;;;
2019/05/24 06:17:47;;;;;;;14.9;11.5;;;;;;;13.61;65.08594;961.7364;;;;
2019/05/24 06:20:29;;;;;;;16.7;11.3;;;;;;;13.71;62.81152;961.705;;;;
2019/05/24 06:22:57;;;;;;;16.3;11.3;;;;;;;13.97;63.82422;961.7439;;;;
2019/05/24 06:25:22;;;;;;;15.1;10.8;;;;;;;14.1;62.67871;961.7742;;;;
2019/05/24 06:27:48;;;;;;;15.9;10.4;;;;;;;14.35;59.73926;961.7436;;;;
2019/05/24 06:30:13;;;;;;;13.9;10;;;;;;;14.56;58.19141;961.7363;;;;
2019/05/24 06:32:38;;;;;;;12.7;9.6;;;;;;;14.65;57.13379;961.6976;;;;
2019/05/24 06:35:03;;;;;;;16.3;11;;;;;;;14.82;57.9668;961.7404;;;;
2019/05/24 06:37:28;;;;;;;20.1;10.5;;;;;;;14.8;58.5293;961.7296;;;;
2019/05/24 06:40:02;;;;;;;18.1;11;;;;;;;14.89;58.10547;961.7257;;;;
2019/05/24 06:42:41;;;;;;;16.3;11.5;;;;;;;14.96;58.82227;961.6548;;;;
2019/05/24 06:45:06;;;;;;;16.7;10.9;;;;;;;15.04;57.84277;961.6442;;;;
2019/05/24 06:47:44;;;;;;;17.1;11.4;;;;;;;15.19;57.08398;961.6668;;;;
2019/05/24 06:50:09;;;;;;;18.6;11.6;;;;;;;15.1;58.44043;961.6526;;;;
2019/05/24 06:52:35;;;;;;;16.5;11.9;;;;;;;15.06;58.04688;961.632;;;;
2019/05/24 06:55:04;;;;;;;17.7;11.8;;;;;;;15.27;57.70801;961.6639;;;;
2019/05/24 06:57:35;;;;;;;16.9;12.2;;;;;;;15.25;58.29492;961.6061;;;;
2019/05/24 07:00:00;;;;;;;15.7;12.2;;;;;;;15.51;56.62109;961.5419;;;;
2019/05/24 07:02:26;;;;;;;17.3;12;;;;;;;15.49;57.50293;961.5751;;;;
2019/05/24 07:04:52;;;;;;;16.1;12.1;;;;;;;15.47;56.26074;961.5916;;;;
2019/05/24 07:07:27;;;;;;;13.6;12.2;;;;;;;15.57;55.6123;961.6476;;;;
2019/05/24 07:09:57;;;;;;;16.2;11.7;;;;;;;15.51;55.77051;961.5992;;;;
2019/05/24 07:12:25;;;;;;;19.8;11.6;;;;;;;15.84;55.51855;961.5995;;;;
2019/05/24 07:14:56;;;;;;;16.6;12;;;;;;;15.94;54.88086;961.6384;;;;
2019/05/24 07:17:22;;;;;;;14.9;11.1;;;;;;;16.12;55.21191;961.6459;;;;
2019/05/24 07:19:47;;;;;;;14.4;10.7;;;;;;;16.23;54.49219;961.6957;;;;
2019/05/24 07:22:12;;;;;;;14.6;10;;;;;;;16.28;53.50684;961.6015;;;;
2019/05/24 07:24:37;;;;;;;15;10.4;;;;;;;16.47;54.02539;961.5869;;;;
2019/05/24 07:27:04;;;;;;;14.1;10.6;;;;;;;16.49;53.07031;961.6055;;;;
2019/05/24 07:29:31;;;;;;;16.3;11.1;;;;;;;16.55;52.08398;961.6893;;;;
2019/05/24 07:31:57;;;;;;;11.1;9.9;;;;;;;16.65;51.62402;961.621;;;;
2019/05/24 07:34:31;;;;;;;14.6;10;;;;;;;16.84;50.9248;961.5933;;;;
2019/05/24 07:37:08;;;;;;;15.1;10;;;;;;;16.84;50.39258;961.6326;;;;
2019/05/24 07:39:33;;;;;;;13;9.8;;;;;;;16.86;49.98047;961.7047;;;;
2019/05/24 07:41:58;;;;;;;12.4;9.3;;;;;;;17.06;48.60742;961.6476;;;;
2019/05/24 07:44:27;;;;;;;12.2;9.6;;;;;;;17.16;50.48828;961.6211;;;;
2019/05/24 07:46:52;;;;;;;13.4;9.8;;;;;;;17.16;48.72461;961.6342;;;;
2019/05/24 07:49:20;;;;;;;14.7;10.4;;;;;;;17.22;48.36328;961.6382;;;;
2019/05/24 07:51:45;;;;;;;12.3;9.5;;;;;;;17.28;50.26465;961.6289;;;;
2019/05/24 07:54:11;;;;;;;13.3;9.6;;;;;;;17.29;49.04688;961.6316;;;;
2019/05/24 07:56:36;;;;;;;11.4;8.7;;;;;;;17.41;47.41309;961.6317;;;;
2019/05/24 07:59:01;;;;;;;10.1;7.8;;;;;;;17.41;47.65039;961.6356;;;;
2019/05/24 08:01:26;;;;;;;10.9;6.8;;;;;;;17.31;47.86621;961.6715;;;;
2019/05/24 08:03:51;;;;;;;10.1;6.9;;;;;;;17.35;45.70117;961.6408;;;;
2019/05/24 08:06:17;;;;;;;8.3;6.1;;;;;;;17.34;45.14453;961.5845;;;;
2019/05/24 08:08:42;;;;;;;10.1;7.1;;;;;;;17.54;45.93457;961.5989;;;;
2019/05/24 08:11:09;;;;;;;10.6;7.3;;;;;;;17.57;46.58984;961.5499;;;;
2019/05/24 08:13:34;;;;;;;10.7;7.3;;;;;;;17.64;45.25781;961.5748;;;;
2019/05/24 08:16:02;;;;;;;7.5;6.1;;;;;;;17.67;44.38477;961.5793;;;;
2019/05/24 08:18:27;;;;;;;8.1;5.5;;;;;;;17.78;44.19336;961.5583;;;;
2019/05/24 08:20:52;;;;;;;9.1;5.9;;;;;;;17.88;44.10938;961.5377;;;;
2019/05/24 08:23:29;;;;;;;5.9;5.3;;;;;;;17.86;43.72754;961.5466;;;;
2019/05/24 08:26:10;;;;;;;7.7;5;;;;;;;17.8;43.3418;961.493;;;;
2019/05/24 08:28:40;;;;;;;7.1;4.8;;;;;;;17.82;42.96484;961.5433;;;;
2019/05/24 08:31:19;;;;;;;7.4;4.8;;;;;;;17.92;44.66992;961.5319;;;;
2019/05/24 08:33:44;;;;;;;7.3;4.8;;;;;;;17.99;43.9541;961.4691;;;;
2019/05/24 08:36:18;;;;;;;6;4.6;;;;;;;18;44.82031;961.5162;;;;
2019/05/24 08:38:53;;;;;;;6.4;5;;;;;;;18.04;45.31055;961.5015;;;;
2019/05/24 08:41:40;;;;;;;8.5;5.6;;;;;;;18.03;44.82324;961.5286;;;;
2019/05/24 08:44:12;;;;;;;7.4;5.3;;;;;;;18.03;45.6416;961.5417;;;;
2019/05/24 08:46:46;;;;;;;7.8;6;;;;;;;18.04;45.10938;961.5408;;;;
2019/05/24 08:49:11;;;;;;;6.3;5;;;;;;;18.1;43.73926;961.5836;;;;
2019/05/24 08:51:37;;;;;;;6.4;5.2;;;;;;;18.2;43.06055;961.4767;;;;
2019/05/24 08:54:05;;;;;;;8.4;5.3;;;;;;;18.17;41.55176;961.4933;;;;
2019/05/24 08:56:30;;;;;;;5.7;5;;;;;;;18.1;41.88965;961.4474;;;;
2019/05/24 08:58:55;;;;;;;5.5;4.6;;;;;;;18.09;41.81641;961.4447;;;;
2019/05/24 09:01:20;;;;;;;11.1;5.3;;;;;;;18.31;43.07227;961.4905;;;;
2019/05/24 09:03:45;;;;;;;5.9;5.3;;;;;;;18.23;40.88086;961.5114;;;;
2019/05/24 09:06:10;;;;;;;7;5.4;;;;;;;18.32;40.39063;961.5011;;;;
2019/05/24 09:08:45;;;;;;;6.1;4.8;;;;;;;18.37;40.32422;961.4545;;;;
2019/05/24 09:11:11;;;;;;;7.2;4.4;;;;;;;18.36;41.73535;961.4426;;;;
2019/05/24 09:13:37;;;;;;;7.5;4.8;;;;;;;18.36;40.41797;961.4467;;;;
2019/05/24 09:16:02;;;;;;;6;4.6;;;;;;;18.44;40.34277;961.4125;;;;
2019/05/24 09:18:28;;;;;;;6.5;5.4;;;;;;;18.52;39.06738;961.4351;;;;
2019/05/24 09:20:53;;;;;;;5.5;4.3;;;;;;;18.6;39.46582;961.3183;;;;
2019/05/24 09:23:18;;;;;;;6.7;4.8;;;;;;;18.67;40.83887;961.3689;;;;
2019/05/24 09:25:43;;;;;;;6.6;4.7;;;;;;;18.67;40.92188;961.3427;;;;
2019/05/24 09:28:08;;;;;;;5.9;4.6;;;;;;;18.77;41.72656;961.3486;;;;
2019/05/24 09:30:37;;;;;;;7;4.7;;;;;;;18.82;42.59961;961.3494;;;;
2019/05/24 09:33:14;;;;;;;7.9;4.8;;;;;;;19.04;40.38574;961.3195;;;;
2019/05/24 09:35:39;;;;;;;6.8;4.7;;;;;;;19.03;40.0752;961.3391;;;;
2019/05/24 09:38:06;;;;;;;6.7;4.9;;;;;;;18.94;41.73047;961.3445;;;;
2019/05/24 09:40:31;;;;;;;6.4;5.3;;;;;;;18.95;39.27148;961.2908;;;;
2019/05/24 09:42:58;;;;;;;7.9;5.5;;;;;;;18.72;41.22266;961.2744;;;;
2019/05/24 09:45:23;;;;;;;8.2;5.3;;;;;;;18.59;41.5791;961.2628;;;;
2019/05/24 09:47:50;;;;;;;6.2;4.7;;;;;;;18.74;41.62891;961.2745;;;;
2019/05/24 09:50:15;;;;;;;8.8;5.3;;;;;;;18.65;41.47852;961.1917;;;;
2019/05/24 09:52:40;;;;;;;6.9;5.1;;;;;;;18.69;40.56641;961.1608;;;;
2019/05/24 09:55:06;;;;;;;6.6;4.8;;;;;;;18.83;41.18652;961.1685;;;;
2019/05/24 09:57:31;;;;;;;6.6;5.2;;;;;;;19.01;41.33301;961.1711;;;;
2019/05/24 09:59:56;;;;;;;6.3;5.7;;;;;;;18.81;42.53809;961.1155;;;;
2019/05/24 10:02:23;;;;;;;6.2;4.9;;;;;;;18.95;41.17285;961.1544;;;;
2019/05/24 10:04:48;;;;;;;7.6;5.3;;;;;;;18.92;40.98047;961.1158;;;;
2019/05/24 10:07:14;;;;;;;7.8;4.7;;;;;;;19.14;40.96484;961.0887;;;;
2019/05/24 10:09:50;;;;;;;6.8;5.4;;;;;;;19.21;40.5791;961.1749;;;;
2019/05/24 10:12:19;;;;;;;7.8;5;;;;;;;19.05;39.92285;961.0862;;;;
2019/05/24 10:14:43;;;;;;;6.7;4.6;;;;;;;19.26;41.15527;961.0875;;;;
2019/05/24 10:17:09;;;;;;;6.2;5.4;;;;;;;19.24;39.9043;961.1046;;;;
2019/05/24 10:19:34;;;;;;;9;5.2;;;;;;;19.21;39.15234;961.1172;;;;
2019/05/24 10:21:59;;;;;;;6;5.4;;;;;;;19.28;39.09863;961.1548;;;;
2019/05/24 10:24:24;;;;;;;7.7;5.7;;;;;;;19.29;39.02832;961.0355;;;;
2019/05/24 10:26:49;;;;;;;7.9;6.1;;;;;;;19.09;40.7832;961.1144;;;;
2019/05/24 10:29:14;;;;;;;9.5;5.9;;;;;;;18.78;40.97949;961.098;;;;
2019/05/24 10:31:39;;;;;;;7.9;6;;;;;;;18.88;41.7959;961.0956;;;;
2019/05/24 10:34:05;;;;;;;7.6;5.4;;;;;;;18.94;40.3291;961.1031;;;;
2019/05/24 10:36:30;;;;;;;6.6;5.1;;;;;;;19.19;39.85156;961.0551;;;;
2019/05/24 10:38:55;;;;;;;6.5;5;;;;;;;19.53;41.09668;961.0276;;;;
2019/05/24 10:41:22;;;;;;;6.7;5.2;;;;;;;19.63;41.26074;961.0121;;;;
2019/05/24 10:43:47;;;;;;;5.8;4.9;;;;;;;19.77;41.10645;960.9769;;;;
2019/05/24 10:46:27;;;;;;;6.4;5;;;;;;;19.91;39.78516;960.9061;;;;
2019/05/24 10:48:55;;;;;;;6;5.1;;;;;;;19.91;39.96387;960.8667;;;;
2019/05/24 10:51:23;;;;;;;7.3;5.6;;;;;;;19.94;39.45605;960.9617;;;;
2019/05/24 10:53:56;;;;;;;6.4;5;;;;;;;20.05;39.75098;960.8652;;;;
2019/05/24 10:56:21;;;;;;;7.3;5.4;;;;;;;19.96;39.61133;960.867;;;;
2019/05/24 10:58:46;;;;;;;6.1;4.9;;;;;;;20.42;42.27734;960.8696;;;;
2019/05/24 11:01:31;;;;;;;8;6.4;;;;;;;20.47;38.46484;960.8228;;;;
2019/05/24 11:03:57;;;;;;;7.6;5.4;;;;;;;20.61;38.55957;960.8358;;;;
2019/05/24 11:06:37;;;;;;;6.5;4.8;;;;;;;20.77;40.13867;960.7818;;;;
2019/05/24 11:09:03;;;;;;;8.6;5.6;;;;;;;20.56;37.43457;960.8395;;;;
2019/05/24 11:11:29;;;;;;;5.8;4.8;;;;;;;20.63;37.35645;960.7966;;;;
2019/05/24 11:13:54;;;;;;;7.6;4.9;;;;;;;20.9;37.74902;960.7087;;;;
2019/05/24 11:16:19;;;;;;;6.2;4.8;;;;;;;21.02;38.56055;960.6701;;;;
2019/05/24 11:18:44;;;;;;;5.6;5;;;;;;;21.19;37.72754;960.6721;;;;
2019/05/24 11:21:10;;;;;;;6.5;5;;;;;;;21.07;35.9248;960.7058;;;;
2019/05/24 11:23:35;;;;;;;7;5.2;;;;;;;21.21;36.29492;960.639;;;;
2019/05/24 11:26:00;;;;;;;8;5.2;;;;;;;21.3;36.18262;960.579;;;;
2019/05/24 11:28:25;;;;;;;6.7;5.5;;;;;;;21.24;34.45801;960.6418;;;;
2019/05/24 11:30:55;;;;;;;7.4;5.4;;;;;;;21.31;34.6543;960.5552;;;;
2019/05/24 11:33:24;;;;;;;8.1;5.1;;;;;;;21.58;39.31445;960.5853;;;;
2019/05/24 11:35:49;;;;;;;7.7;5.2;;;;;;;21.73;34.51953;960.5069;;;;
2019/05/24 11:38:16;;;;;;;7;4.6;;;;;;;22;32.45801;960.4782;;;;
2019/05/24 11:40:41;;;;;;;5.6;4.9;;;;;;;21.77;31.98633;960.4872;;;;
2019/05/24 11:43:06;;;;;;;5.9;4.4;;;;;;;21.9;31.38574;960.4478;;;;
2019/05/24 11:45:31;;;;;;;5.6;5;;;;;;;21.56;33.34668;960.4128;;;;
2019/05/24 11:47:58;;;;;;;6.8;4.9;;;;;;;21.9;35.94434;960.4345;;;;
2019/05/24 11:50:23;;;;;;;7;5;;;;;;;22.39;35.55371;960.3716;;;;
2019/05/24 11:52:50;;;;;;;5.4;4.2;;;;;;;22.64;33.02051;960.329;;;;
2019/05/24 11:55:15;;;;;;;6.2;5.3;;;;;;;22.38;32.49805;960.4086;;;;
2019/05/24 11:57:42;;;;;;;7.1;5.2;;;;;;;22.78;32.27539;960.3751;;;;
2019/05/24 12:00:11;;;;;;;6.1;4.8;;;;;;;23.17;31.40332;960.3251;;;;
2019/05/24 12:02:32;;;;;;;6.2;4.9;;;;;;;23.26;30.37695;960.3352;;;;
2019/05/24 12:04:58;;;;;;;6.4;4.3;;;;;;;23.75;32.53711;960.284;;;;
2019/05/24 12:07:25;;;;;;;5.5;4.1;;;;;;;23.91;32.21387;960.2936;;;;
2019/05/24 12:09:50;;;;;;;5.4;4.1;;;;;;;23.82;29.6582;960.2609;;;;
2019/05/24 12:12:15;;;;;;;5.4;4.3;;;;;;;24.25;29.8916;960.2514;;;;
2019/05/24 12:14:41;;;;;;;6.5;4.9;;;;;;;23.51;29.3623;960.2733;;;;
2019/05/24 12:17:06;;;;;;;5.8;4.9;;;;;;;23.19;29.65332;960.2062;;;;
2019/05/24 12:19:40;;;;;;;5.6;5;;;;;;;23.25;29.53711;960.3273;;;;
2019/05/24 12:22:05;;;;;;;6.7;5.3;;;;;;;23.26;31.3623;960.2467;;;;
2019/05/24 12:24:30;;;;;;;8.4;4.8;;;;;;;23.29;29.45508;960.2109;;;;
2019/05/24 12:26:59;;;;;;;8.4;4.3;;;;;;;23.73;29.95313;960.1944;;;;
2019/05/24 12:29:25;;;;;;;7.3;4.7;;;;;;;23.51;28.65332;960.1847;;;;
2019/05/24 12:31:50;;;;;;;6.9;4.6;;;;;;;23.6;30.50977;960.1817;;;;
2019/05/24 12:34:15;;;;;;;6.3;4.9;;;;;;;23.87;29.79395;960.2226;;;;
2019/05/24 12:36:41;;;;;;;5.9;4.4;;;;;;;24.02;28.62598;960.1725;;;;
2019/05/24 12:39:06;;;;;;;6.3;4.3;;;;;;;24.43;32.21484;960.1468;;;;
2019/05/24 12:41:31;;;;;;;6;4.1;;;;;;;24.49;31.34082;960.1713;;;;
2019/05/24 12:43:56;;;;;;;7.6;4.6;;;;;;;24.22;29.85449;960.1589;;;;
2019/05/24 12:46:21;;;;;;;7.6;4.5;;;;;;;24.26;30.73438;960.1691;;;;
2019/05/24 12:48:47;;;;;;;7;4.2;;;;;;;24.14;30.125;960.1082;;;;
2019/05/24 12:51:12;;;;;;;4.6;3.7;;;;;;;24.06;27.93066;960.0916;;;;
2019/05/24 12:53:37;;;;;;;8.2;4.5;;;;;;;24.49;28.89648;960.0667;;;;
2019/05/24 12:56:03;;;;;;;8.7;4.7;;;;;;;24.31;27.93457;960.063;;;;
2019/05/24 12:58:28;;;;;;;6.4;4.9;;;;;;;23.94;27.98438;960.0461;;;;
2019/05/24 13:00:53;;;;;;;5.3;4.8;;;;;;;23.29;28.6875;960.026;;;;
2019/05/24 13:03:18;;;;;;;7.3;4.5;;;;;;;24.06;29.93945;959.9989;;;;
2019/05/24 13:05:43;;;;;;;5.5;4.5;;;;;;;24.34;28.48926;959.9964;;;;
2019/05/24 13:08:08;;;;;;;6.9;5;;;;;;;24.6;29.93945;959.8658;;;;
2019/05/24 13:10:34;;;;;;;7.3;5.5;;;;;;;24.34;30.31836;959.8337;;;;
2019/05/24 13:12:59;;;;;;;6.6;4.1;;;;;;;24.55;28.25098;959.8572;;;;
2019/05/24 13:15:24;;;;;;;5.9;4.2;;;;;;;24.4;29.64941;959.8744;;;;
2019/05/24 13:17:49;;;;;;;7.2;4.1;;;;;;;25.09;32.69629;959.8853;;;;
2019/05/24 13:20:14;;;;;;;7.4;4.1;;;;;;;25.31;27.67188;959.8538;;;;
2019/05/24 13:22:39;;;;;;;5.5;4.1;;;;;;;25.1;29.10547;959.7731;;;;
2019/05/24 13:25:05;;;;;;;5.2;4.3;;;;;;;25.1;28.17676;959.7996;;;;
2019/05/24 13:27:30;;;;;;;6.6;4.9;;;;;;;25.02;31.72656;959.8544;;;;
2019/05/24 13:29:55;;;;;;;7;4.6;;;;;;;25.25;32.52734;959.7195;;;;
2019/05/24 13:32:20;;;;;;;8;4.5;;;;;;;25.55;30.6543;959.7417;;;;
2019/05/24 13:34:45;;;;;;;6;4.3;;;;;;;25.72;28.60254;959.7802;;;;
2019/05/24 13:37:10;;;;;;;5.5;4.5;;;;;;;25.42;26.99121;959.7051;;;;
2019/05/24 13:39:35;;;;;;;5.6;4;;;;;;;25.02;28.83398;959.7617;;;;
2019/05/24 13:42:00;;;;;;;8.1;4.7;;;;;;;25.54;28.85645;959.7394;;;;
2019/05/24 13:44:25;;;;;;;6.3;4.3;;;;;;;25.59;25.95215;959.7611;;;;
2019/05/24 13:46:50;;;;;;;8.5;4.2;;;;;;;25.45;27.39063;959.7299;;;;
2019/05/24 13:49:15;;;;;;;5;4.2;;;;;;;25.46;27.15039;959.7416;;;;
2019/05/24 13:51:42;;;;;;;7.1;4.2;;;;;;;25.16;27.04785;959.7444;;;;
2019/05/24 13:54:07;;;;;;;7.5;4.2;;;;;;;25.23;26.66699;959.7261;;;;
2019/05/24 13:56:33;;;;;;;6.9;4;;;;;;;25.89;28.2627;959.6653;;;;
2019/05/24 13:59:13;;;;;;;6.4;3.6;;;;;;;25.75;26.11816;959.6473;;;;
2019/05/24 14:01:40;;;;;;;6.2;3.4;;;;;;;26.21;30.68848;959.5947;;;;
2019/05/24 14:04:05;;;;;;;4.8;3.1;;;;;;;26.32;25.47461;959.6313;;;;
2019/05/24 14:06:35;;;;;;;4.3;3.2;;;;;;;26.18;28.17285;959.6328;;;;
2019/05/24 14:09:04;;;;;;;5.1;3.1;;;;;;;26.31;26.3916;959.5641;;;;
2019/05/24 14:11:31;;;;;;;4.7;2.9;;;;;;;25.96;28.59375;959.7225;;;;
2019/05/24 14:13:56;;;;;;;9.2;3;;;;;;;26.37;29.34473;959.6228;;;;
2019/05/24 14:16:23;;;;;;;4;2.8;;;;;;;26.28;26.00391;959.6042;;;;
2019/05/24 14:18:48;;;;;;;6.3;3.5;;;;;;;25.53;26.08105;959.632;;;;
2019/05/24 14:21:15;;;;;;;6.6;3.5;;;;;;;25.69;26.64551;959.5751;;;;
2019/05/24 14:23:41;;;;;;;6.3;3.3;;;;;;;25.95;27.77148;959.6005;;;;
2019/05/24 14:26:06;;;;;;;4.7;2.9;;;;;;;26.28;28.09473;959.4755;;;;